createdAt,value
2018-04-29T00:00:30.943Z,5.53
2018-04-29T00:02:59.123Z,6.23
2018-04-29T00:05:27.202Z,6.00
2018-04-29T00:07:55.293Z,4.93
2018-04-29T00:10:23.401Z,6.53
2018-04-29T00:12:51.505Z,6.30
2018-04-29T00:15:19.609Z,5.50
2018-04-29T00:17:47.687Z,5.33
2018-04-29T00:20:15.799Z,6.33
2018-04-29T00:22:43.991Z,5.30
2018-04-29T00:25:12.049Z,5.27
2018-04-29T00:27:42.142Z,6.63
2018-04-29T00:30:10.231Z,7.90
2018-04-29T00:32:39.325Z,7.27
2018-04-29T00:35:07.463Z,8.17
2018-04-29T00:37:35.545Z,5.57
2018-04-29T00:40:03.665Z,6.53
2018-04-29T00:42:31.754Z,7.93
2018-04-29T00:44:59.832Z,7.53
2018-04-29T00:47:27.910Z,5.40
2018-04-29T00:49:56.008Z,6.13
2018-04-29T00:52:24.129Z,7.30
2018-04-29T00:54:52.225Z,5.93
2018-04-29T00:57:20.321Z,7.67
2018-04-29T00:59:48.400Z,6.50
2018-04-29T01:02:16.644Z,7.30
2018-04-29T01:04:44.743Z,5.53
2018-04-29T01:07:12.876Z,5.90
2018-04-29T01:09:41.009Z,5.50
2018-04-29T01:12:09.113Z,4.33
2018-04-29T01:14:37.180Z,5.20
2018-04-29T01:17:07.394Z,7.37
2018-04-29T01:19:35.486Z,5.90
2018-04-29T01:22:03.569Z,6.70
2018-04-29T01:24:31.660Z,6.20
2018-04-29T01:26:59.774Z,4.90
2018-04-29T01:29:27.853Z,5.37
2018-04-29T01:31:55.973Z,6.10
2018-04-29T01:34:24.158Z,5.20
2018-04-29T01:36:52.228Z,4.83
2018-04-29T01:39:20.326Z,6.13
2018-04-29T01:41:48.424Z,5.50
2018-04-29T01:44:16.561Z,7.50
2018-04-29T01:46:44.631Z,5.43
2018-04-29T01:49:12.725Z,5.90
2018-04-29T01:51:42.154Z,5.43
2018-04-29T01:54:11.296Z,7.13
2018-04-29T01:56:49.589Z,5.60
2018-04-29T01:59:17.778Z,6.57
2018-04-29T02:01:45.877Z,6.50
2018-04-29T02:04:16.112Z,6.83
2018-04-29T02:06:45.401Z,7.13
2018-04-29T02:09:13.622Z,6.80
2018-04-29T02:11:41.807Z,7.87
2018-04-29T02:14:09.879Z,6.53
2018-04-29T02:16:37.968Z,7.97
2018-04-29T02:19:06.064Z,7.30
2018-04-29T02:21:37.762Z,8.03
2018-04-29T02:24:05.838Z,7.60
2018-04-29T02:26:33.965Z,7.47
2018-04-29T02:29:02.061Z,6.83
2018-04-29T02:31:30.354Z,6.90
2018-04-29T02:33:58.274Z,7.30
2018-04-29T02:36:26.384Z,9.00
2018-04-29T02:38:54.474Z,7.77
2018-04-29T02:41:22.590Z,6.90
2018-04-29T02:43:50.650Z,6.53
2018-04-29T02:46:18.791Z,7.50
2018-04-29T02:48:46.868Z,6.73
2018-04-29T02:51:21.111Z,8.60
2018-04-29T02:53:49.203Z,7.47
2018-04-29T02:56:17.343Z,6.33
2018-04-29T02:58:49.165Z,7.47
2018-04-29T03:01:17.281Z,6.80
2018-04-29T03:03:45.382Z,7.00
2018-04-29T03:06:13.492Z,6.23
2018-04-29T03:08:41.622Z,6.20
2018-04-29T03:11:09.683Z,8.93
2018-04-29T03:13:37.787Z,8.50
2018-04-29T03:16:10.386Z,6.77
2018-04-29T03:18:39.573Z,7.37
2018-04-29T03:21:07.655Z,6.07
2018-04-29T03:23:35.749Z,6.40
2018-04-29T03:26:03.904Z,9.20
2018-04-29T03:28:32.003Z,7.40
2018-04-29T03:31:00.057Z,7.50
2018-04-29T03:33:28.171Z,6.70
2018-04-29T03:35:56.362Z,8.33
2018-04-29T03:38:24.601Z,7.03
2018-04-29T03:40:52.713Z,6.73
2018-04-29T03:43:21.817Z,7.00
2018-04-29T03:45:49.916Z,7.80
2018-04-29T03:48:18.003Z,6.83
2018-04-29T03:50:46.090Z,9.17
2018-04-29T03:53:14.213Z,7.50
2018-04-29T03:55:42.528Z,8.33
2018-04-29T03:58:16.786Z,8.60
2018-04-29T04:00:51.113Z,9.00
2018-04-29T04:03:28.967Z,8.57
2018-04-29T04:05:57.195Z,6.60
2018-04-29T04:08:25.302Z,7.60
2018-04-29T04:10:53.421Z,8.83
2018-04-29T04:13:21.721Z,9.10
2018-04-29T04:15:49.989Z,7.70
2018-04-29T04:18:18.070Z,8.57
2018-04-29T04:20:46.169Z,11.73
2018-04-29T04:23:18.492Z,7.60
2018-04-29T04:25:46.586Z,7.40
2018-04-29T04:28:14.645Z,9.53
2018-04-29T04:30:43.693Z,8.60
2018-04-29T04:33:18.277Z,8.47
2018-04-29T04:35:46.364Z,8.13
2018-04-29T04:38:14.469Z,8.53
2018-04-29T04:40:42.539Z,9.60
2018-04-29T04:43:10.623Z,8.40
2018-04-29T04:45:38.697Z,9.40
2018-04-29T04:48:06.830Z,7.10
2018-04-29T04:50:34.970Z,7.50
2018-04-29T04:53:03.066Z,7.27
2018-04-29T04:55:31.121Z,8.20
2018-04-29T04:57:59.250Z,7.33
2018-04-29T05:00:30.740Z,7.33
2018-04-29T05:03:04.644Z,7.30
2018-04-29T05:05:37.209Z,7.43
2018-04-29T05:08:13.972Z,9.00
2018-04-29T05:10:55.660Z,8.37
2018-04-29T05:16:18.425Z,8.00
2018-04-29T05:18:53.164Z,7.30
2018-04-29T05:21:26.112Z,9.00
2018-04-29T05:23:57.814Z,6.10
2018-04-29T05:26:30.397Z,7.57
2018-04-29T05:28:58.518Z,7.37
2018-04-29T05:31:29.996Z,7.60
2018-04-29T05:34:01.590Z,6.80
2018-04-29T05:36:37.187Z,7.10
2018-04-29T05:39:05.305Z,7.80
2018-04-29T05:41:38.508Z,7.33
2018-04-29T05:44:06.760Z,7.47
2018-04-29T05:46:39.061Z,6.77
2018-04-29T05:49:13.640Z,9.13
2018-04-29T05:51:43.878Z,7.07
2018-04-29T05:54:11.961Z,7.10
2018-04-29T05:56:50.599Z,7.07
2018-04-29T05:59:18.834Z,7.33
2018-04-29T06:01:59.372Z,8.37
2018-04-29T06:04:32.299Z,8.70
2018-04-29T06:07:03.956Z,8.50
2018-04-29T06:09:32.065Z,8.10
2018-04-29T06:12:00.306Z,8.90
2018-04-29T06:14:28.438Z,8.57
2018-04-29T06:16:56.673Z,7.97
2018-04-29T06:19:24.832Z,7.20
2018-04-29T06:21:53.054Z,7.87
2018-04-29T06:24:21.221Z,8.13
2018-04-29T06:26:49.303Z,9.00
2018-04-29T06:29:17.381Z,7.57
2018-04-29T06:31:45.517Z,8.53
2018-04-29T06:34:13.746Z,9.20
2018-04-29T06:36:41.889Z,7.67
2018-04-29T06:39:10.054Z,8.80
2018-04-29T06:41:39.312Z,10.93
2018-04-29T06:44:07.445Z,12.97
2018-04-29T06:46:35.576Z,14.53
2018-04-29T06:49:03.733Z,12.60
2018-04-29T06:51:32.485Z,11.70
2018-04-29T06:54:02.735Z,10.97
2018-04-29T06:56:30.875Z,10.73
2018-04-29T06:58:59.040Z,11.10
2018-04-29T07:01:27.172Z,9.17
2018-04-29T07:03:55.253Z,13.17
2018-04-29T07:06:23.376Z,9.57
2018-04-29T07:08:51.577Z,10.00
2018-04-29T07:11:24.781Z,8.43
2018-04-29T07:13:52.902Z,7.90
2018-04-29T07:16:21.026Z,8.43
2018-04-29T07:18:49.113Z,9.10
2018-04-29T07:21:17.640Z,9.00
2018-04-29T07:23:45.741Z,6.83
2018-04-29T07:26:13.875Z,8.23
2018-04-29T07:28:50.945Z,7.00
2018-04-29T07:31:23.434Z,9.97
2018-04-29T07:33:59.161Z,7.03
2018-04-29T07:36:27.263Z,7.87
2018-04-29T07:41:43.167Z,9.77
2018-04-29T07:44:11.248Z,8.23
2018-04-29T07:46:40.855Z,7.93
2018-04-29T07:49:09.086Z,10.33
2018-04-29T07:51:41.257Z,9.83
2018-04-29T07:54:10.446Z,8.20
2018-04-29T07:56:56.272Z,9.40
2018-04-29T07:59:31.108Z,8.93
2018-04-29T08:02:00.529Z,10.43
2018-04-29T08:04:37.574Z,8.67
2018-04-29T08:07:05.886Z,7.67
2018-04-29T08:09:34.164Z,9.00
2018-04-29T08:12:02.283Z,7.67
2018-04-29T08:14:31.374Z,6.83
2018-04-29T08:16:59.628Z,7.30
2018-04-29T08:19:31.792Z,9.77
2018-04-29T08:22:00.228Z,7.60
2018-04-29T08:24:28.450Z,8.27
2018-04-29T08:26:56.525Z,7.33
2018-04-29T08:29:24.649Z,7.40
2018-04-29T08:31:52.754Z,10.23
2018-04-29T08:34:20.865Z,9.70
2018-04-29T08:37:01.440Z,6.80
2018-04-29T08:39:43.393Z,6.80
2018-04-29T08:42:11.590Z,8.43
2018-04-29T08:44:49.926Z,8.47
2018-04-29T08:47:20.125Z,7.53
2018-04-29T08:50:05.438Z,6.40
2018-04-29T08:52:48.414Z,8.63
2018-04-29T08:55:27.565Z,8.00
2018-04-29T08:58:01.176Z,7.00
2018-04-29T09:00:29.302Z,6.17
2018-04-29T09:03:01.110Z,6.67
2018-04-29T09:05:30.680Z,7.40
2018-04-29T09:07:58.807Z,5.70
2018-04-29T09:10:33.730Z,8.63
2018-04-29T09:13:05.266Z,8.20
2018-04-29T09:18:26.437Z,9.13
2018-04-29T09:20:54.677Z,7.43
2018-04-29T09:23:22.962Z,7.93
2018-04-29T09:25:51.230Z,6.27
2018-04-29T09:28:21.383Z,6.00
2018-04-29T09:30:55.177Z,6.80
2018-04-29T09:33:23.262Z,5.50
2018-04-29T09:35:54.512Z,5.47
2018-04-29T09:38:39.136Z,5.20
2018-04-29T09:41:12.883Z,5.50
2018-04-29T09:43:46.685Z,6.73
2018-04-29T09:46:19.358Z,6.20
2018-04-29T09:48:47.604Z,6.40
2018-04-29T09:51:22.725Z,7.23
2018-04-29T09:53:57.467Z,6.90
2018-04-29T09:56:40.086Z,6.57
2018-04-29T09:59:12.251Z,6.43
2018-04-29T10:01:40.529Z,6.00
2018-04-29T10:04:08.833Z,9.53
2018-04-29T10:06:49.798Z,7.10
2018-04-29T10:09:33.625Z,10.63
2018-04-29T10:12:01.831Z,7.20
2018-04-29T10:14:29.933Z,8.73
2018-04-29T10:16:59.245Z,6.90
2018-04-29T10:19:35.802Z,6.60
2018-04-29T10:22:04.350Z,7.30
2018-04-29T10:24:32.489Z,6.47
2018-04-29T10:27:06.216Z,7.10
2018-04-29T10:29:39.679Z,6.03
2018-04-29T10:32:12.285Z,7.53
2018-04-29T10:34:40.362Z,5.53
2018-04-29T10:37:08.433Z,6.60
2018-04-29T10:42:24.444Z,7.77
2018-04-29T10:44:56.492Z,6.03
2018-04-29T10:47:24.577Z,5.53
2018-04-29T10:49:53.173Z,7.27
2018-04-29T10:55:13.940Z,5.37
2018-04-29T10:57:42.109Z,8.00
2018-04-29T11:00:10.393Z,7.00
2018-04-29T11:02:51.668Z,6.43
2018-04-29T11:05:19.798Z,6.20
2018-04-29T11:07:47.921Z,6.30
2018-04-29T11:10:18.446Z,6.07
2018-04-29T11:12:48.689Z,5.63
2018-04-29T11:15:16.933Z,5.70
2018-04-29T11:17:45.191Z,4.23
2018-04-29T11:20:18.562Z,5.20
2018-04-29T11:22:53.054Z,3.57
2018-04-29T11:25:25.703Z,5.00
2018-04-29T11:27:55.078Z,4.67
2018-04-29T11:30:33.889Z,4.70
2018-04-29T11:33:03.183Z,4.20
2018-04-29T11:35:31.385Z,3.80
2018-04-29T11:38:02.827Z,6.60
2018-04-29T11:40:31.140Z,13.07
2018-04-29T11:43:07.002Z,9.60
2018-04-29T11:45:35.290Z,11.80
2018-04-29T11:48:20.869Z,10.00
2018-04-29T11:50:49.073Z,10.40
2018-04-29T11:53:20.760Z,6.10
2018-04-29T11:55:52.342Z,7.47
2018-04-29T11:58:35.781Z,9.30
2018-04-29T12:01:04.078Z,9.50
2018-04-29T12:03:36.571Z,8.90
2018-04-29T12:06:04.777Z,9.37
2018-04-29T12:08:32.941Z,6.37
2018-04-29T12:11:02.269Z,5.90
2018-04-29T12:13:36.167Z,6.13
2018-04-29T12:16:05.345Z,5.80
2018-04-29T12:18:39.147Z,5.40
2018-04-29T12:21:07.241Z,4.40
2018-04-29T12:23:42.672Z,5.03
2018-04-29T12:26:16.296Z,5.80
2018-04-29T12:31:35.810Z,5.90
2018-04-29T12:36:54.257Z,6.13
2018-04-29T12:39:22.433Z,7.07
2018-04-29T12:42:04.050Z,6.00
2018-04-29T12:44:37.202Z,6.40
2018-04-29T12:47:12.676Z,6.33
2018-04-29T12:49:48.357Z,5.90
2018-04-29T12:52:28.879Z,5.50
2018-04-29T12:54:58.281Z,6.00
2018-04-29T13:00:28.637Z,5.00
2018-04-29T13:05:52.030Z,4.50
2018-04-29T13:08:26.742Z,5.27
2018-04-29T13:11:02.693Z,5.50
2018-04-29T13:13:32.948Z,4.87
2018-04-29T13:16:01.226Z,6.17
2018-04-29T13:18:34.090Z,5.70
2018-04-29T13:21:03.488Z,5.73
2018-04-29T13:23:47.415Z,5.37
2018-04-29T13:26:15.604Z,5.10
2018-04-29T13:28:48.013Z,6.00
2018-04-29T13:31:22.208Z,10.07
2018-04-29T13:36:38.461Z,5.63
2018-04-29T13:39:10.483Z,5.00
2018-04-29T13:41:38.763Z,5.67
2018-04-29T13:44:10.781Z,6.70
2018-04-29T13:46:38.924Z,5.70
2018-04-29T13:49:09.241Z,7.93
2018-04-29T13:51:41.364Z,6.10
2018-04-29T13:54:14.739Z,10.43
2018-04-29T13:56:42.858Z,7.90
2018-04-29T13:59:21.386Z,6.93
2018-04-29T14:04:37.957Z,6.47
2018-04-29T14:07:07.168Z,6.57
2018-04-29T14:09:42.040Z,5.03
2018-04-29T14:12:13.975Z,5.27
2018-04-29T14:14:47.638Z,6.37
2018-04-29T14:17:15.976Z,5.63
2018-04-29T14:19:44.564Z,6.90
2018-04-29T14:25:13.418Z,5.80
2018-04-29T14:27:45.339Z,4.63
2018-04-29T14:30:21.725Z,6.20
2018-04-29T14:32:55.311Z,7.47
2018-04-29T14:35:37.876Z,5.87
2018-04-29T14:40:55.188Z,8.33
2018-04-29T14:43:23.477Z,10.43
2018-04-29T14:45:51.520Z,6.60
2018-04-29T14:48:19.649Z,6.93
2018-04-29T14:50:52.901Z,5.53
2018-04-29T14:53:22.110Z,5.10
2018-04-29T14:55:50.360Z,6.77
2018-04-29T14:58:25.617Z,5.03
2018-04-29T15:03:47.454Z,5.20
2018-04-29T15:06:15.833Z,5.87
2018-04-29T15:08:49.042Z,7.13
2018-04-29T15:11:19.349Z,6.17
2018-04-29T15:16:41.877Z,6.93
2018-04-29T15:19:13.939Z,5.17
2018-04-29T15:21:55.258Z,6.27
2018-04-29T15:24:27.049Z,7.37
2018-04-29T15:26:55.810Z,6.70
2018-04-29T15:29:25.993Z,4.60
2018-04-29T15:32:12.214Z,4.97
2018-04-29T15:34:40.313Z,6.13
2018-04-29T15:37:16.834Z,4.83
2018-04-29T15:39:50.713Z,5.20
2018-04-29T15:42:25.420Z,5.40
2018-04-29T15:44:53.498Z,4.60
2018-04-29T15:47:26.984Z,6.07
2018-04-29T15:50:01.607Z,6.27
2018-04-29T15:52:36.305Z,5.80
2018-04-29T15:55:09.304Z,6.53
2018-04-29T15:57:39.417Z,4.50
2018-04-29T16:00:09.496Z,5.43
2018-04-29T16:02:39.653Z,6.60
2018-04-29T16:05:09.053Z,6.40
2018-04-29T16:07:39.345Z,5.90
2018-04-29T16:10:13.906Z,6.20
2018-04-29T16:12:44.116Z,5.90
2018-04-29T16:15:12.475Z,8.00
2018-04-29T16:17:40.569Z,5.53
2018-04-29T16:20:19.710Z,5.47
2018-04-29T16:23:07.204Z,5.13
2018-04-29T16:25:37.589Z,4.53
2018-04-29T16:28:05.802Z,5.03
2018-04-29T16:30:34.091Z,5.90
2018-04-29T16:33:02.318Z,6.00
2018-04-29T16:38:18.873Z,6.20
2018-04-29T16:40:49.463Z,6.03
2018-04-29T16:43:18.309Z,5.60
2018-04-29T16:45:53.292Z,9.23
2018-04-29T16:48:21.574Z,5.13
2018-04-29T16:51:00.705Z,7.23
2018-04-29T16:53:28.833Z,7.43
2018-04-29T16:58:44.697Z,9.07
2018-04-29T17:01:17.869Z,8.60
2018-04-29T17:04:00.390Z,16.40
2018-04-29T17:06:32.313Z,20.63
2018-04-29T17:09:00.413Z,19.40
2018-04-29T17:14:31.274Z,11.73
2018-04-29T17:17:01.649Z,10.83
2018-04-29T17:19:29.792Z,11.60
2018-04-29T17:22:00.000Z,16.00
2018-04-29T17:27:18.081Z,12.83
2018-04-29T17:29:48.513Z,10.47
2018-04-29T17:32:30.401Z,10.50
2018-04-29T17:37:47.072Z,8.83
2018-04-29T17:43:04.255Z,10.40
2018-04-29T17:48:23.470Z,9.50
2018-04-29T17:51:02.453Z,8.93
2018-04-29T17:53:30.628Z,7.70
2018-04-29T17:58:46.342Z,8.17
2018-04-29T18:01:28.324Z,8.33
2018-04-29T18:04:14.996Z,9.20
2018-04-29T18:06:50.767Z,8.03
2018-04-29T18:09:31.655Z,7.80
2018-04-29T18:12:00.939Z,7.40
2018-04-29T18:14:32.247Z,10.53
2018-04-29T18:17:00.559Z,8.80
2018-04-29T18:19:37.108Z,8.13
2018-04-29T18:22:18.405Z,7.30
2018-04-29T18:24:57.200Z,8.93
2018-04-29T18:27:30.219Z,9.13
2018-04-29T18:30:09.142Z,9.00
2018-04-29T18:32:41.817Z,9.33
2018-04-29T18:35:09.917Z,7.33
2018-04-29T18:37:46.861Z,7.50
2018-04-29T18:40:17.405Z,7.30
2018-04-29T18:42:54.177Z,5.80
2018-04-29T18:45:22.246Z,7.33
2018-04-29T18:47:51.442Z,6.00
2018-04-29T18:50:37.506Z,5.90
2018-04-29T18:53:07.733Z,7.40
2018-04-29T18:55:41.778Z,7.00
2018-04-29T18:58:10.031Z,10.73
2018-04-29T19:00:46.850Z,9.10
2018-04-29T19:03:19.849Z,12.67
2018-04-29T19:05:47.947Z,8.27
2018-04-29T19:08:19.471Z,9.60
2018-04-29T19:10:47.731Z,8.73
2018-04-29T19:13:15.841Z,7.93
2018-04-29T19:15:43.957Z,9.07
2018-04-29T19:18:12.050Z,8.50
2018-04-29T19:20:40.150Z,8.37
2018-04-29T19:23:12.027Z,7.50
2018-04-29T19:25:40.105Z,8.47
2018-04-29T19:28:08.179Z,8.10
2018-04-29T19:30:41.968Z,8.70
2018-04-29T19:33:20.591Z,7.17
2018-04-29T19:35:48.945Z,6.60
2018-04-29T19:38:18.060Z,7.53
2018-04-29T19:40:46.158Z,7.67
2018-04-29T19:43:14.297Z,9.60
2018-04-29T19:45:44.415Z,11.20
2018-04-29T19:48:12.488Z,7.80
2018-04-29T19:50:44.780Z,9.00
2018-04-29T19:53:24.346Z,8.00
2018-04-29T19:55:53.626Z,9.03
2018-04-29T19:58:25.915Z,7.63
2018-04-29T20:00:59.709Z,7.73
2018-04-29T20:03:32.307Z,6.57
2018-04-29T20:06:00.441Z,8.60
2018-04-29T20:08:28.549Z,8.10
2018-04-29T20:10:56.607Z,7.43
2018-04-29T20:13:24.811Z,11.03
2018-04-29T20:15:52.977Z,9.83
2018-04-29T20:18:21.087Z,9.47
2018-04-29T20:20:49.186Z,8.83
2018-04-29T20:23:17.284Z,7.70
2018-04-29T20:25:49.006Z,8.73
2018-04-29T20:28:17.173Z,7.20
2018-04-29T20:30:45.265Z,7.23
2018-04-29T20:33:13.362Z,8.00
2018-04-29T20:35:43.624Z,8.13
2018-04-29T20:38:11.745Z,9.07
2018-04-29T20:40:39.833Z,9.50
2018-04-29T20:43:07.910Z,9.03
2018-04-29T20:45:36.250Z,8.47
2018-04-29T20:48:04.523Z,8.40
2018-04-29T20:50:32.780Z,7.60
2018-04-29T20:53:00.854Z,8.80
2018-04-29T20:55:28.973Z,8.53
2018-04-29T20:57:57.099Z,9.40
2018-04-29T21:00:25.232Z,7.47
2018-04-29T21:02:53.353Z,11.03
2018-04-29T21:05:22.446Z,9.23
2018-04-29T21:07:50.505Z,10.00
2018-04-29T21:10:18.658Z,11.37
2018-04-29T21:12:46.757Z,8.70
2018-04-29T21:15:16.138Z,8.70
2018-04-29T21:17:44.248Z,7.83
2018-04-29T21:20:13.413Z,7.77
2018-04-29T21:22:41.582Z,8.87
2018-04-29T21:25:09.745Z,8.43
2018-04-29T21:27:37.901Z,6.90
2018-04-29T21:30:06.005Z,8.63
2018-04-29T21:32:34.113Z,9.33
2018-04-29T21:35:02.219Z,7.83
2018-04-29T21:37:30.322Z,9.00
2018-04-29T21:39:58.446Z,9.80
2018-04-29T21:42:26.572Z,8.97
2018-04-29T21:44:54.642Z,8.47
2018-04-29T21:47:22.826Z,9.93
2018-04-29T21:49:50.977Z,8.33
2018-04-29T21:52:19.122Z,9.23
2018-04-29T21:54:47.266Z,9.50
2018-04-29T21:57:15.379Z,9.23
2018-04-29T21:59:43.442Z,9.80
2018-04-29T22:02:11.528Z,8.97
2018-04-29T22:04:39.601Z,7.90
2018-04-29T22:07:07.914Z,8.83
2018-04-29T22:09:36.033Z,9.60
2018-04-29T22:12:04.125Z,7.77
2018-04-29T22:14:32.880Z,9.17
2018-04-29T22:17:00.961Z,8.00
2018-04-29T22:19:29.106Z,9.03
2018-04-29T22:21:57.387Z,8.53
2018-04-29T22:24:25.500Z,7.73
2018-04-29T22:26:53.602Z,9.80
2018-04-29T22:29:21.693Z,9.37
2018-04-29T22:31:49.806Z,7.67
2018-04-29T22:34:17.923Z,7.80
2018-04-29T22:36:46.010Z,8.40
2018-04-29T22:39:14.089Z,8.03
2018-04-29T22:41:42.201Z,8.40
2018-04-29T22:44:10.285Z,8.83
2018-04-29T22:46:38.398Z,10.03
2018-04-29T22:49:06.564Z,8.43
2018-04-29T22:51:39.171Z,8.10
2018-04-29T22:54:07.345Z,8.83
2018-04-29T22:56:35.448Z,8.90
2018-04-29T22:59:03.569Z,9.03
2018-04-29T23:01:31.671Z,8.40
2018-04-29T23:03:59.827Z,8.43
2018-04-29T23:06:27.901Z,10.50
2018-04-29T23:08:56.014Z,7.40
2018-04-29T23:11:24.122Z,7.87
2018-04-29T23:13:52.241Z,7.77
2018-04-29T23:16:20.393Z,6.97
2018-04-29T23:18:48.469Z,9.77
2018-04-29T23:21:16.553Z,10.13
2018-04-29T23:23:44.697Z,8.23
2018-04-29T23:26:12.769Z,7.10
2018-04-29T23:28:40.969Z,8.20
2018-04-29T23:31:09.073Z,9.80
2018-04-29T23:33:37.207Z,8.20
2018-04-29T23:36:05.293Z,8.60
2018-04-29T23:38:33.370Z,8.10
2018-04-29T23:41:01.578Z,8.47
2018-04-29T23:43:29.684Z,8.53
2018-04-29T23:45:59.753Z,7.03
2018-04-29T23:48:27.873Z,8.63
2018-04-29T23:50:55.975Z,8.53
2018-04-29T23:53:24.069Z,9.70
2018-04-29T23:55:52.193Z,7.47
2018-04-29T23:58:20.323Z,8.03
